sensor_id;sensor_type;location;lat;lon;timestamp;P1;durP1;ratioP1;P2;durP2;ratioP2
21505;SDS011;10914;48.886;9.394;2023-04-12T00:00:01;25.33;;;23.83;;
21505;SDS011;10914;48.886;9.394;2023-04-12T00:02:26;26.05;;;24.23;;
21505;SDS011;10914;48.886;9.394;2023-04-12T00:04:52;25.08;;;23.27;;
21505;SDS011;10914;48.886;9.394;2023-04-12T00:07:24;24.80;;;23.15;;
21505;SDS011;10914;48.886;9.394;2023-04-12T00:09:49;23.30;;;21.80;;
21505;SDS011;10914;48.886;9.394;2023-04-12T00:12:16;24.63;;;23.13;;
21505;SDS011;10914;48.886;9.394;2023-04-12T00:14:43;23.83;;;22.42;;
21505;SDS011;10914;48.886;9.394;2023-04-12T00:17:08;24.63;;;23.10;;
21505;SDS011;10914;48.886;9.394;2023-04-12T00:19:33;24.13;;;22.53;;
21505;SDS011;10914;48.886;9.394;2023-04-12T00:21:58;24.10;;;22.60;;
21505;SDS011;10914;48.886;9.394;2023-04-12T00:24:24;24.30;;;22.90;;
21505;SDS011;10914;48.886;9.394;2023-04-12T00:26:50;24.40;;;22.88;;
21505;SDS011;10914;48.886;9.394;2023-04-12T00:29:15;25.60;;;23.98;;
21505;SDS011;10914;48.886;9.394;2023-04-12T00:31:41;24.52;;;22.92;;
21505;SDS011;10914;48.886;9.394;2023-04-12T00:34:06;24.07;;;22.40;;
21505;SDS011;10914;48.886;9.394;2023-04-12T00:36:31;23.65;;;22.05;;
21505;SDS011;10914;48.886;9.394;2023-04-12T00:38:56;23.67;;;22.17;;
21505;SDS011;10914;48.886;9.394;2023-04-12T00:41:21;23.95;;;22.38;;
21505;SDS011;10914;48.886;9.394;2023-04-12T00:43:48;23.60;;;22.20;;
21505;SDS011;10914;48.886;9.394;2023-04-12T00:46:13;23.75;;;22.15;;
21505;SDS011;10914;48.886;9.394;2023-04-12T00:48:39;23.53;;;22.10;;
21505;SDS011;10914;48.886;9.394;2023-04-12T00:51:05;23.15;;;21.85;;
21505;SDS011;10914;48.886;9.394;2023-04-12T00:53:30;24.23;;;22.73;;
21505;SDS011;10914;48.886;9.394;2023-04-12T00:55:56;22.98;;;21.58;;
21505;SDS011;10914;48.886;9.394;2023-04-12T00:58:22;24.40;;;22.95;;
21505;SDS011;10914;48.886;9.394;2023-04-12T01:00:48;24.30;;;22.90;;
21505;SDS011;10914;48.886;9.394;2023-04-12T01:03:19;23.88;;;22.25;;
21505;SDS011;10914;48.886;9.394;2023-04-12T01:08:49;24.00;;;22.60;;
21505;SDS011;10914;48.886;9.394;2023-04-12T01:11:23;23.23;;;21.85;;
21505;SDS011;10914;48.886;9.394;2023-04-12T01:13:53;24.13;;;22.70;;
21505;SDS011;10914;48.886;9.394;2023-04-12T01:18:48;23.98;;;22.27;;
21505;SDS011;10914;48.886;9.394;2023-04-12T01:21:15;24.25;;;22.80;;
21505;SDS011;10914;48.886;9.394;2023-04-12T01:26:45;23.50;;;22.20;;
21505;SDS011;10914;48.886;9.394;2023-04-12T01:29:12;27.33;;;25.40;;
21505;SDS011;10914;48.886;9.394;2023-04-12T01:31:39;30.83;;;28.25;;
21505;SDS011;10914;48.886;9.394;2023-04-12T01:34:05;33.63;;;30.77;;
21505;SDS011;10914;48.886;9.394;2023-04-12T01:36:32;30.17;;;27.80;;
21505;SDS011;10914;48.886;9.394;2023-04-12T01:38:58;28.05;;;25.95;;
21505;SDS011;10914;48.886;9.394;2023-04-12T01:41:24;26.98;;;25.08;;
21505;SDS011;10914;48.886;9.394;2023-04-12T01:43:49;26.75;;;24.95;;
21505;SDS011;10914;48.886;9.394;2023-04-12T01:46:15;26.38;;;24.63;;
21505;SDS011;10914;48.886;9.394;2023-04-12T01:48:44;25.35;;;23.85;;
21505;SDS011;10914;48.886;9.394;2023-04-12T01:51:17;25.77;;;24.27;;
21505;SDS011;10914;48.886;9.394;2023-04-12T01:53:46;26.00;;;24.15;;
21505;SDS011;10914;48.886;9.394;2023-04-12T01:56:12;25.80;;;24.17;;
21505;SDS011;10914;48.886;9.394;2023-04-12T01:58:39;26.88;;;25.00;;
21505;SDS011;10914;48.886;9.394;2023-04-12T02:01:05;26.27;;;24.70;;
21505;SDS011;10914;48.886;9.394;2023-04-12T02:03:31;27.67;;;25.83;;
21505;SDS011;10914;48.886;9.394;2023-04-12T02:05:57;27.13;;;25.33;;
21505;SDS011;10914;48.886;9.394;2023-04-12T02:08:23;27.38;;;25.58;;
21505;SDS011;10914;48.886;9.394;2023-04-12T02:10:48;28.75;;;26.98;;
21505;SDS011;10914;48.886;9.394;2023-04-12T02:13:14;28.40;;;26.57;;
21505;SDS011;10914;48.886;9.394;2023-04-12T02:15:39;28.70;;;26.98;;
21505;SDS011;10914;48.886;9.394;2023-04-12T02:18:04;29.15;;;27.35;;
21505;SDS011;10914;48.886;9.394;2023-04-12T02:20:30;29.23;;;27.45;;
21505;SDS011;10914;48.886;9.394;2023-04-12T02:22:55;30.73;;;28.63;;
21505;SDS011;10914;48.886;9.394;2023-04-12T02:25:20;30.90;;;28.67;;
21505;SDS011;10914;48.886;9.394;2023-04-12T02:27:45;30.73;;;28.85;;
21505;SDS011;10914;48.886;9.394;2023-04-12T02:30:11;30.33;;;28.58;;
21505;SDS011;10914;48.886;9.394;2023-04-12T02:32:36;30.45;;;28.77;;
21505;SDS011;10914;48.886;9.394;2023-04-12T02:35:08;29.88;;;28.00;;
21505;SDS011;10914;48.886;9.394;2023-04-12T02:37:34;29.60;;;27.70;;
21505;SDS011;10914;48.886;9.394;2023-04-12T02:39:59;28.92;;;27.23;;
21505;SDS011;10914;48.886;9.394;2023-04-12T02:42:26;30.90;;;28.95;;
21505;SDS011;10914;48.886;9.394;2023-04-12T02:44:51;30.50;;;28.58;;
21505;SDS011;10914;48.886;9.394;2023-04-12T02:47:16;31.52;;;29.55;;
21505;SDS011;10914;48.886;9.394;2023-04-12T02:49:42;33.50;;;31.65;;
21505;SDS011;10914;48.886;9.394;2023-04-12T02:52:07;34.42;;;32.35;;
21505;SDS011;10914;48.886;9.394;2023-04-12T02:54:32;34.55;;;32.40;;
21505;SDS011;10914;48.886;9.394;2023-04-12T02:56:58;36.00;;;33.60;;
21505;SDS011;10914;48.886;9.394;2023-04-12T02:59:23;36.17;;;33.92;;
21505;SDS011;10914;48.886;9.394;2023-04-12T03:01:49;34.13;;;32.22;;
21505;SDS011;10914;48.886;9.394;2023-04-12T03:04:14;35.20;;;33.05;;
21505;SDS011;10914;48.886;9.394;2023-04-12T03:06:40;34.55;;;32.53;;
21505;SDS011;10914;48.886;9.394;2023-04-12T03:09:16;35.60;;;33.38;;
21505;SDS011;10914;48.886;9.394;2023-04-12T03:11:41;32.38;;;30.25;;
21505;SDS011;10914;48.886;9.394;2023-04-12T03:14:06;32.33;;;30.13;;
21505;SDS011;10914;48.886;9.394;2023-04-12T03:16:31;30.63;;;28.67;;
21505;SDS011;10914;48.886;9.394;2023-04-12T03:18:56;32.17;;;30.38;;
21505;SDS011;10914;48.886;9.394;2023-04-12T03:21:22;32.08;;;29.83;;
21505;SDS011;10914;48.886;9.394;2023-04-12T03:23:47;30.58;;;28.67;;
21505;SDS011;10914;48.886;9.394;2023-04-12T03:26:12;29.87;;;27.83;;
21505;SDS011;10914;48.886;9.394;2023-04-12T03:28:39;28.30;;;26.60;;
21505;SDS011;10914;48.886;9.394;2023-04-12T03:31:05;27.45;;;25.95;;
21505;SDS011;10914;48.886;9.394;2023-04-12T03:33:30;28.63;;;27.00;;
21505;SDS011;10914;48.886;9.394;2023-04-12T03:35:55;27.38;;;25.63;;
21505;SDS011;10914;48.886;9.394;2023-04-12T03:38:20;28.77;;;26.88;;
21505;SDS011;10914;48.886;9.394;2023-04-12T03:40:47;28.42;;;26.83;;
21505;SDS011;10914;48.886;9.394;2023-04-12T03:43:12;30.45;;;28.55;;
21505;SDS011;10914;48.886;9.394;2023-04-12T03:45:37;28.33;;;26.50;;
21505;SDS011;10914;48.886;9.394;2023-04-12T03:48:02;27.60;;;26.00;;
21505;SDS011;10914;48.886;9.394;2023-04-12T03:50:28;28.10;;;26.17;;
21505;SDS011;10914;48.886;9.394;2023-04-12T03:52:55;29.92;;;27.92;;
21505;SDS011;10914;48.886;9.394;2023-04-12T03:55:20;29.17;;;27.23;;
21505;SDS011;10914;48.886;9.394;2023-04-12T03:57:46;29.67;;;27.83;;
21505;SDS011;10914;48.886;9.394;2023-04-12T04:00:12;29.88;;;28.17;;
21505;SDS011;10914;48.886;9.394;2023-04-12T04:02:38;30.33;;;28.42;;
21505;SDS011;10914;48.886;9.394;2023-04-12T04:05:03;30.27;;;28.58;;
21505;SDS011;10914;48.886;9.394;2023-04-12T04:07:29;31.70;;;29.80;;
21505;SDS011;10914;48.886;9.394;2023-04-12T04:09:55;30.35;;;28.40;;
21505;SDS011;10914;48.886;9.394;2023-04-12T04:12:21;30.27;;;28.58;;
21505;SDS011;10914;48.886;9.394;2023-04-12T04:14:46;29.53;;;27.40;;
21505;SDS011;10914;48.886;9.394;2023-04-12T04:17:11;29.38;;;27.48;;
21505;SDS011;10914;48.886;9.394;2023-04-12T04:19:37;29.13;;;27.42;;
21505;SDS011;10914;48.886;9.394;2023-04-12T04:22:02;29.95;;;28.23;;
21505;SDS011;10914;48.886;9.394;2023-04-12T04:24:27;29.42;;;27.85;;
21505;SDS011;10914;48.886;9.394;2023-04-12T04:26:52;30.13;;;28.50;;
21505;SDS011;10914;48.886;9.394;2023-04-12T04:29:18;30.75;;;28.85;;
21505;SDS011;10914;48.886;9.394;2023-04-12T04:31:43;29.98;;;28.10;;
21505;SDS011;10914;48.886;9.394;2023-04-12T04:34:09;30.23;;;28.45;;
21505;SDS011;10914;48.886;9.394;2023-04-12T04:36:36;29.52;;;27.77;;
21505;SDS011;10914;48.886;9.394;2023-04-12T04:39:01;29.05;;;27.27;;
21505;SDS011;10914;48.886;9.394;2023-04-12T04:41:28;31.23;;;29.42;;
21505;SDS011;10914;48.886;9.394;2023-04-12T04:43:53;30.67;;;28.70;;
21505;SDS011;10914;48.886;9.394;2023-04-12T04:46:19;31.13;;;29.30;;
21505;SDS011;10914;48.886;9.394;2023-04-12T04:48:46;32.85;;;30.85;;
21505;SDS011;10914;48.886;9.394;2023-04-12T04:51:12;33.17;;;31.17;;
21505;SDS011;10914;48.886;9.394;2023-04-12T04:53:38;32.03;;;30.10;;
21505;SDS011;10914;48.886;9.394;2023-04-12T04:56:04;33.83;;;31.92;;
21505;SDS011;10914;48.886;9.394;2023-04-12T04:58:30;35.75;;;33.75;;
21505;SDS011;10914;48.886;9.394;2023-04-12T05:00:55;45.53;;;42.83;;
21505;SDS011;10914;48.886;9.394;2023-04-12T05:03:21;37.50;;;35.42;;
21505;SDS011;10914;48.886;9.394;2023-04-12T05:05:47;35.85;;;33.63;;
21505;SDS011;10914;48.886;9.394;2023-04-12T05:08:12;37.65;;;35.45;;
21505;SDS011;10914;48.886;9.394;2023-04-12T05:10:37;39.53;;;37.13;;
21505;SDS011;10914;48.886;9.394;2023-04-12T05:13:03;38.42;;;36.30;;
21505;SDS011;10914;48.886;9.394;2023-04-12T05:15:29;38.40;;;36.38;;
21505;SDS011;10914;48.886;9.394;2023-04-12T05:17:54;42.08;;;39.78;;
21505;SDS011;10914;48.886;9.394;2023-04-12T05:20:19;43.10;;;40.65;;
21505;SDS011;10914;48.886;9.394;2023-04-12T05:22:44;39.10;;;36.67;;
21505;SDS011;10914;48.886;9.394;2023-04-12T05:25:10;37.92;;;35.72;;
21505;SDS011;10914;48.886;9.394;2023-04-12T05:27:35;38.45;;;36.13;;
21505;SDS011;10914;48.886;9.394;2023-04-12T05:30:00;38.00;;;35.90;;
21505;SDS011;10914;48.886;9.394;2023-04-12T05:32:25;37.22;;;35.13;;
21505;SDS011;10914;48.886;9.394;2023-04-12T05:34:50;38.17;;;35.97;;
21505;SDS011;10914;48.886;9.394;2023-04-12T05:37:16;36.30;;;34.17;;
21505;SDS011;10914;48.886;9.394;2023-04-12T05:39:41;34.90;;;32.78;;
21505;SDS011;10914;48.886;9.394;2023-04-12T05:42:06;33.80;;;31.95;;
21505;SDS011;10914;48.886;9.394;2023-04-12T05:44:33;35.00;;;32.88;;
21505;SDS011;10914;48.886;9.394;2023-04-12T05:46:59;34.13;;;32.05;;
21505;SDS011;10914;48.886;9.394;2023-04-12T05:49:27;33.07;;;31.17;;
21505;SDS011;10914;48.886;9.394;2023-04-12T05:51:52;32.40;;;30.63;;
21505;SDS011;10914;48.886;9.394;2023-04-12T05:54:17;32.70;;;30.80;;
21505;SDS011;10914;48.886;9.394;2023-04-12T05:56:45;32.60;;;30.77;;
21505;SDS011;10914;48.886;9.394;2023-04-12T05:59:10;33.30;;;31.50;;
21505;SDS011;10914;48.886;9.394;2023-04-12T06:01:36;32.88;;;31.02;;
21505;SDS011;10914;48.886;9.394;2023-04-12T06:04:02;31.75;;;29.92;;
21505;SDS011;10914;48.886;9.394;2023-04-12T06:06:29;31.08;;;29.33;;
21505;SDS011;10914;48.886;9.394;2023-04-12T06:08:56;29.98;;;28.42;;
21505;SDS011;10914;48.886;9.394;2023-04-12T06:11:24;30.33;;;28.42;;
21505;SDS011;10914;48.886;9.394;2023-04-12T06:13:49;30.13;;;28.33;;
21505;SDS011;10914;48.886;9.394;2023-04-12T06:16:14;30.23;;;28.48;;
21505;SDS011;10914;48.886;9.394;2023-04-12T06:18:39;32.20;;;30.33;;
21505;SDS011;10914;48.886;9.394;2023-04-12T06:21:05;31.48;;;29.48;;
21505;SDS011;10914;48.886;9.394;2023-04-12T06:23:30;29.92;;;28.23;;
21505;SDS011;10914;48.886;9.394;2023-04-12T06:25:55;30.00;;;28.40;;
21505;SDS011;10914;48.886;9.394;2023-04-12T06:28:20;29.42;;;27.73;;
21505;SDS011;10914;48.886;9.394;2023-04-12T06:30:46;29.37;;;27.87;;
21505;SDS011;10914;48.886;9.394;2023-04-12T06:33:11;28.65;;;26.95;;
21505;SDS011;10914;48.886;9.394;2023-04-12T06:35:36;29.80;;;28.20;;
21505;SDS011;10914;48.886;9.394;2023-04-12T06:38:01;29.17;;;27.43;;
21505;SDS011;10914;48.886;9.394;2023-04-12T06:40:26;29.33;;;27.63;;
21505;SDS011;10914;48.886;9.394;2023-04-12T06:42:51;29.40;;;27.52;;
21505;SDS011;10914;48.886;9.394;2023-04-12T06:45:17;27.53;;;25.87;;
21505;SDS011;10914;48.886;9.394;2023-04-12T06:47:42;26.38;;;24.80;;
21505;SDS011;10914;48.886;9.394;2023-04-12T06:50:07;27.77;;;26.17;;
21505;SDS011;10914;48.886;9.394;2023-04-12T06:52:33;26.00;;;24.50;;
21505;SDS011;10914;48.886;9.394;2023-04-12T06:54:58;26.83;;;25.33;;
21505;SDS011;10914;48.886;9.394;2023-04-12T06:57:23;27.63;;;25.97;;
21505;SDS011;10914;48.886;9.394;2023-04-12T06:59:48;26.50;;;25.00;;
21505;SDS011;10914;48.886;9.394;2023-04-12T07:02:13;26.98;;;25.40;;
21505;SDS011;10914;48.886;9.394;2023-04-12T07:04:39;26.75;;;25.10;;
21505;SDS011;10914;48.886;9.394;2023-04-12T07:07:05;26.67;;;25.08;;
21505;SDS011;10914;48.886;9.394;2023-04-12T07:09:30;26.27;;;24.70;;
21505;SDS011;10914;48.886;9.394;2023-04-12T07:11:56;26.77;;;25.13;;
21505;SDS011;10914;48.886;9.394;2023-04-12T07:14:21;26.05;;;24.55;;
21505;SDS011;10914;48.886;9.394;2023-04-12T07:16:46;26.63;;;24.95;;
21505;SDS011;10914;48.886;9.394;2023-04-12T07:19:12;25.77;;;24.40;;
21505;SDS011;10914;48.886;9.394;2023-04-12T07:21:37;25.77;;;24.30;;
21505;SDS011;10914;48.886;9.394;2023-04-12T07:24:02;26.85;;;25.30;;
21505;SDS011;10914;48.886;9.394;2023-04-12T07:26:27;26.63;;;25.02;;
21505;SDS011;10914;48.886;9.394;2023-04-12T07:28:54;27.05;;;25.42;;
21505;SDS011;10914;48.886;9.394;2023-04-12T07:31:19;27.98;;;26.35;;
21505;SDS011;10914;48.886;9.394;2023-04-12T07:33:44;26.42;;;24.88;;
21505;SDS011;10914;48.886;9.394;2023-04-12T07:36:10;26.75;;;25.15;;
21505;SDS011;10914;48.886;9.394;2023-04-12T07:38:35;26.90;;;25.25;;
21505;SDS011;10914;48.886;9.394;2023-04-12T07:41:00;25.33;;;23.90;;
21505;SDS011;10914;48.886;9.394;2023-04-12T07:43:25;26.67;;;24.97;;
21505;SDS011;10914;48.886;9.394;2023-04-12T07:45:52;25.48;;;24.08;;
21505;SDS011;10914;48.886;9.394;2023-04-12T07:48:18;26.00;;;24.60;;
21505;SDS011;10914;48.886;9.394;2023-04-12T07:50:43;25.87;;;24.47;;
21505;SDS011;10914;48.886;9.394;2023-04-12T07:53:18;25.87;;;24.33;;
21505;SDS011;10914;48.886;9.394;2023-04-12T07:55:44;26.95;;;25.50;;
21505;SDS011;10914;48.886;9.394;2023-04-12T07:58:09;25.80;;;24.50;;
21505;SDS011;10914;48.886;9.394;2023-04-12T08:00:34;25.88;;;24.38;;
21505;SDS011;10914;48.886;9.394;2023-04-12T08:03:00;26.75;;;25.25;;
21505;SDS011;10914;48.886;9.394;2023-04-12T08:05:25;27.25;;;25.67;;
21505;SDS011;10914;48.886;9.394;2023-04-12T08:07:50;26.40;;;25.10;;
21505;SDS011;10914;48.886;9.394;2023-04-12T08:10:16;26.52;;;25.10;;
21505;SDS011;10914;48.886;9.394;2023-04-12T08:12:41;25.67;;;24.17;;
21505;SDS011;10914;48.886;9.394;2023-04-12T08:15:06;27.80;;;26.13;;
21505;SDS011;10914;48.886;9.394;2023-04-12T08:17:31;26.27;;;24.83;;
21505;SDS011;10914;48.886;9.394;2023-04-12T08:19:56;26.30;;;24.90;;
21505;SDS011;10914;48.886;9.394;2023-04-12T08:22:22;26.27;;;24.80;;
21505;SDS011;10914;48.886;9.394;2023-04-12T08:24:47;25.60;;;24.20;;
21505;SDS011;10914;48.886;9.394;2023-04-12T08:27:12;25.70;;;24.30;;
21505;SDS011;10914;48.886;9.394;2023-04-12T08:29:38;26.50;;;24.98;;
21505;SDS011;10914;48.886;9.394;2023-04-12T08:32:03;25.90;;;24.50;;
21505;SDS011;10914;48.886;9.394;2023-04-12T08:34:29;25.45;;;24.13;;
21505;SDS011;10914;48.886;9.394;2023-04-12T08:36:54;25.33;;;23.93;;
21505;SDS011;10914;48.886;9.394;2023-04-12T08:39:23;25.88;;;24.23;;
21505;SDS011;10914;48.886;9.394;2023-04-12T08:41:48;25.88;;;24.40;;
21505;SDS011;10914;48.886;9.394;2023-04-12T08:44:14;24.90;;;23.60;;
21505;SDS011;10914;48.886;9.394;2023-04-12T08:46:40;25.20;;;23.70;;
21505;SDS011;10914;48.886;9.394;2023-04-12T08:49:06;25.73;;;24.13;;
21505;SDS011;10914;48.886;9.394;2023-04-12T08:51:31;26.42;;;24.92;;
21505;SDS011;10914;48.886;9.394;2023-04-12T08:53:57;25.90;;;24.40;;
21505;SDS011;10914;48.886;9.394;2023-04-12T08:56:23;24.48;;;23.17;;
21505;SDS011;10914;48.886;9.394;2023-04-12T08:58:48;24.45;;;23.15;;
21505;SDS011;10914;48.886;9.394;2023-04-12T09:01:14;24.63;;;23.25;;
21505;SDS011;10914;48.886;9.394;2023-04-12T09:03:43;24.17;;;22.77;;
21505;SDS011;10914;48.886;9.394;2023-04-12T09:06:08;23.90;;;22.60;;
21505;SDS011;10914;48.886;9.394;2023-04-12T09:08:34;23.95;;;22.63;;
21505;SDS011;10914;48.886;9.394;2023-04-12T09:11:00;24.85;;;23.65;;
21505;SDS011;10914;48.886;9.394;2023-04-12T09:13:32;26.53;;;25.03;;
21505;SDS011;10914;48.886;9.394;2023-04-12T09:15:58;28.77;;;27.38;;
21505;SDS011;10914;48.886;9.394;2023-04-12T09:18:23;32.83;;;31.23;;
21505;SDS011;10914;48.886;9.394;2023-04-12T09:20:49;34.03;;;32.10;;
21505;SDS011;10914;48.886;9.394;2023-04-12T09:23:21;40.33;;;38.23;;
21505;SDS011;10914;48.886;9.394;2023-04-12T09:25:48;29.17;;;27.73;;
21505;SDS011;10914;48.886;9.394;2023-04-12T09:28:19;28.92;;;27.42;;
21505;SDS011;10914;48.886;9.394;2023-04-12T09:30:45;30.60;;;28.98;;
21505;SDS011;10914;48.886;9.394;2023-04-12T09:33:15;32.15;;;30.50;;
21505;SDS011;10914;48.886;9.394;2023-04-12T09:35:40;30.23;;;28.63;;
21505;SDS011;10914;48.886;9.394;2023-04-12T09:38:07;27.65;;;26.20;;
21505;SDS011;10914;48.886;9.394;2023-04-12T09:40:33;27.90;;;26.50;;
21505;SDS011;10914;48.886;9.394;2023-04-12T09:43:00;29.88;;;28.15;;
21505;SDS011;10914;48.886;9.394;2023-04-12T09:45:25;29.55;;;28.15;;
21505;SDS011;10914;48.886;9.394;2023-04-12T09:47:52;32.95;;;31.30;;
21505;SDS011;10914;48.886;9.394;2023-04-12T09:50:36;32.92;;;31.33;;
21505;SDS011;10914;48.886;9.394;2023-04-12T09:53:02;30.05;;;28.58;;
21505;SDS011;10914;48.886;9.394;2023-04-12T09:55:28;27.63;;;26.17;;
21505;SDS011;10914;48.886;9.394;2023-04-12T09:57:56;27.00;;;25.60;;
21505;SDS011;10914;48.886;9.394;2023-04-12T10:00:22;28.70;;;26.90;;
21505;SDS011;10914;48.886;9.394;2023-04-12T10:02:50;28.00;;;26.52;;
21505;SDS011;10914;48.886;9.394;2023-04-12T10:05:16;27.25;;;25.85;;
21505;SDS011;10914;48.886;9.394;2023-04-12T10:07:42;26.50;;;25.13;;
21505;SDS011;10914;48.886;9.394;2023-04-12T10:10:08;26.05;;;24.55;;
21505;SDS011;10914;48.886;9.394;2023-04-12T10:12:37;24.83;;;23.40;;
21505;SDS011;10914;48.886;9.394;2023-04-12T10:15:06;24.00;;;22.90;;
21505;SDS011;10914;48.886;9.394;2023-04-12T10:17:36;24.73;;;23.30;;
21505;SDS011;10914;48.886;9.394;2023-04-12T10:20:03;24.48;;;23.08;;
21505;SDS011;10914;48.886;9.394;2023-04-12T10:22:29;24.13;;;22.83;;
21505;SDS011;10914;48.886;9.394;2023-04-12T10:24:54;24.60;;;23.30;;
21505;SDS011;10914;48.886;9.394;2023-04-12T10:27:26;23.70;;;22.50;;
21505;SDS011;10914;48.886;9.394;2023-04-12T10:29:51;25.40;;;23.95;;
21505;SDS011;10914;48.886;9.394;2023-04-12T10:34:42;23.02;;;21.73;;
21505;SDS011;10914;48.886;9.394;2023-04-12T10:37:07;23.88;;;22.40;;
21505;SDS011;10914;48.886;9.394;2023-04-12T10:39:43;24.40;;;22.60;;
21505;SDS011;10914;48.886;9.394;2023-04-12T10:42:18;23.60;;;22.20;;
21505;SDS011;10914;48.886;9.394;2023-04-12T10:44:44;24.00;;;22.67;;
21505;SDS011;10914;48.886;9.394;2023-04-12T10:47:10;23.58;;;22.38;;
21505;SDS011;10914;48.886;9.394;2023-04-12T10:49:35;24.02;;;22.63;;
21505;SDS011;10914;48.886;9.394;2023-04-12T10:54:29;24.15;;;22.85;;
21505;SDS011;10914;48.886;9.394;2023-04-12T10:56:55;23.35;;;21.95;;
21505;SDS011;10914;48.886;9.394;2023-04-12T10:59:21;23.40;;;22.10;;
21505;SDS011;10914;48.886;9.394;2023-04-12T11:04:30;24.02;;;22.60;;
21505;SDS011;10914;48.886;9.394;2023-04-12T11:06:57;25.77;;;24.17;;
21505;SDS011;10914;48.886;9.394;2023-04-12T11:09:25;23.77;;;22.48;;
21505;SDS011;10914;48.886;9.394;2023-04-12T11:11:55;23.77;;;22.45;;
21505;SDS011;10914;48.886;9.394;2023-04-12T11:14:24;23.25;;;21.95;;
21505;SDS011;10914;48.886;9.394;2023-04-12T11:19:37;22.40;;;21.10;;
21505;SDS011;10914;48.886;9.394;2023-04-12T11:22:03;22.02;;;20.85;;
21505;SDS011;10914;48.886;9.394;2023-04-12T11:24:28;21.48;;;20.48;;
21505;SDS011;10914;48.886;9.394;2023-04-12T11:26:53;22.47;;;21.33;;
21505;SDS011;10914;48.886;9.394;2023-04-12T11:29:25;22.63;;;21.33;;
21505;SDS011;10914;48.886;9.394;2023-04-12T11:31:50;21.90;;;20.70;;
21505;SDS011;10914;48.886;9.394;2023-04-12T11:34:16;21.65;;;20.45;;
21505;SDS011;10914;48.886;9.394;2023-04-12T11:36:41;21.10;;;19.90;;
21505;SDS011;10914;48.886;9.394;2023-04-12T11:39:06;21.73;;;20.63;;
21505;SDS011;10914;48.886;9.394;2023-04-12T11:41:32;21.30;;;20.10;;
21505;SDS011;10914;48.886;9.394;2023-04-12T11:43:58;20.92;;;19.83;;
21505;SDS011;10914;48.886;9.394;2023-04-12T11:46:23;21.83;;;20.73;;
21505;SDS011;10914;48.886;9.394;2023-04-12T11:48:49;22.25;;;21.15;;
21505;SDS011;10914;48.886;9.394;2023-04-12T11:51:20;21.77;;;20.58;;
21505;SDS011;10914;48.886;9.394;2023-04-12T11:53:51;21.88;;;20.58;;
21505;SDS011;10914;48.886;9.394;2023-04-12T11:56:16;21.98;;;20.85;;
21505;SDS011;10914;48.886;9.394;2023-04-12T11:58:41;24.48;;;23.23;;
21505;SDS011;10914;48.886;9.394;2023-04-12T12:01:10;24.95;;;23.73;;
21505;SDS011;10914;48.886;9.394;2023-04-12T12:03:49;25.77;;;24.33;;
21505;SDS011;10914;48.886;9.394;2023-04-12T12:06:14;26.55;;;25.13;;
21505;SDS011;10914;48.886;9.394;2023-04-12T12:08:40;26.63;;;25.35;;
21505;SDS011;10914;48.886;9.394;2023-04-12T12:11:05;30.33;;;28.80;;
21505;SDS011;10914;48.886;9.394;2023-04-12T12:13:46;26.08;;;24.77;;
21505;SDS011;10914;48.886;9.394;2023-04-12T12:16:12;24.42;;;23.25;;
21505;SDS011;10914;48.886;9.394;2023-04-12T12:18:43;26.10;;;24.80;;
21505;SDS011;10914;48.886;9.394;2023-04-12T12:21:10;25.67;;;24.45;;
21505;SDS011;10914;48.886;9.394;2023-04-12T12:23:36;27.30;;;25.95;;
21505;SDS011;10914;48.886;9.394;2023-04-12T12:26:02;27.33;;;26.02;;
21505;SDS011;10914;48.886;9.394;2023-04-12T12:28:28;28.10;;;26.77;;
21505;SDS011;10914;48.886;9.394;2023-04-12T12:30:53;26.67;;;25.48;;
21505;SDS011;10914;48.886;9.394;2023-04-12T12:33:19;26.15;;;24.85;;
21505;SDS011;10914;48.886;9.394;2023-04-12T12:35:45;27.60;;;25.88;;
21505;SDS011;10914;48.886;9.394;2023-04-12T12:38:10;26.15;;;24.80;;
21505;SDS011;10914;48.886;9.394;2023-04-12T12:40:35;25.08;;;23.88;;
21505;SDS011;10914;48.886;9.394;2023-04-12T12:43:01;25.75;;;24.45;;
21505;SDS011;10914;48.886;9.394;2023-04-12T12:45:26;25.70;;;24.50;;
21505;SDS011;10914;48.886;9.394;2023-04-12T12:47:53;28.80;;;27.48;;
21505;SDS011;10914;48.886;9.394;2023-04-12T12:50:20;26.50;;;25.08;;
21505;SDS011;10914;48.886;9.394;2023-04-12T12:52:47;26.60;;;25.15;;
21505;SDS011;10914;48.886;9.394;2023-04-12T12:55:12;26.70;;;25.40;;
21505;SDS011;10914;48.886;9.394;2023-04-12T12:57:38;25.52;;;24.33;;
21505;SDS011;10914;48.886;9.394;2023-04-12T13:00:04;24.87;;;23.67;;
21505;SDS011;10914;48.886;9.394;2023-04-12T13:02:30;21.50;;;20.50;;
21505;SDS011;10914;48.886;9.394;2023-04-12T13:04:55;21.07;;;19.93;;
21505;SDS011;10914;48.886;9.394;2023-04-12T13:07:21;20.40;;;19.40;;
21505;SDS011;10914;48.886;9.394;2023-04-12T13:09:46;21.33;;;20.30;;
21505;SDS011;10914;48.886;9.394;2023-04-12T13:12:11;20.85;;;19.75;;
21505;SDS011;10914;48.886;9.394;2023-04-12T13:14:39;20.40;;;19.35;;
21505;SDS011;10914;48.886;9.394;2023-04-12T13:17:05;19.92;;;18.92;;
21505;SDS011;10914;48.886;9.394;2023-04-12T13:19:30;21.17;;;20.17;;
21505;SDS011;10914;48.886;9.394;2023-04-12T13:21:56;20.13;;;19.23;;
21505;SDS011;10914;48.886;9.394;2023-04-12T13:24:21;21.00;;;20.00;;
21505;SDS011;10914;48.886;9.394;2023-04-12T13:26:46;20.02;;;18.92;;
21505;SDS011;10914;48.886;9.394;2023-04-12T13:29:11;19.37;;;18.33;;
21505;SDS011;10914;48.886;9.394;2023-04-12T13:31:36;20.00;;;19.00;;
21505;SDS011;10914;48.886;9.394;2023-04-12T13:34:01;19.63;;;18.63;;
21505;SDS011;10914;48.886;9.394;2023-04-12T13:36:27;19.33;;;18.40;;
21505;SDS011;10914;48.886;9.394;2023-04-12T13:38:52;19.60;;;18.60;;
21505;SDS011;10914;48.886;9.394;2023-04-12T13:41:17;19.70;;;18.70;;
21505;SDS011;10914;48.886;9.394;2023-04-12T13:43:43;19.45;;;18.45;;
21505;SDS011;10914;48.886;9.394;2023-04-12T13:46:08;21.03;;;20.03;;
21505;SDS011;10914;48.886;9.394;2023-04-12T13:48:33;21.85;;;20.73;;
21505;SDS011;10914;48.886;9.394;2023-04-12T13:50:58;21.50;;;20.50;;
21505;SDS011;10914;48.886;9.394;2023-04-12T13:53:23;21.35;;;20.27;;
21505;SDS011;10914;48.886;9.394;2023-04-12T13:55:49;19.67;;;18.58;;
21505;SDS011;10914;48.886;9.394;2023-04-12T13:58:14;20.05;;;18.95;;
21505;SDS011;10914;48.886;9.394;2023-04-12T14:00:39;19.63;;;18.73;;
21505;SDS011;10914;48.886;9.394;2023-04-12T14:03:05;18.98;;;18.08;;
21505;SDS011;10914;48.886;9.394;2023-04-12T14:05:30;19.40;;;18.40;;
21505;SDS011;10914;48.886;9.394;2023-04-12T14:07:55;18.65;;;17.75;;
21505;SDS011;10914;48.886;9.394;2023-04-12T14:10:20;19.20;;;18.20;;
21505;SDS011;10914;48.886;9.394;2023-04-12T14:12:45;19.23;;;18.30;;
21505;SDS011;10914;48.886;9.394;2023-04-12T14:15:11;19.65;;;18.73;;
21505;SDS011;10914;48.886;9.394;2023-04-12T14:17:36;19.50;;;18.50;;
21505;SDS011;10914;48.886;9.394;2023-04-12T14:20:01;20.33;;;19.23;;
21505;SDS011;10914;48.886;9.394;2023-04-12T14:22:29;20.15;;;19.15;;
21505;SDS011;10914;48.886;9.394;2023-04-12T14:24:55;20.48;;;19.38;;
21505;SDS011;10914;48.886;9.394;2023-04-12T14:27:20;21.65;;;20.55;;
21505;SDS011;10914;48.886;9.394;2023-04-12T14:29:45;21.08;;;19.98;;
21505;SDS011;10914;48.886;9.394;2023-04-12T14:32:10;20.50;;;19.58;;